Time;durP1;ratioP1;P1;durP2;ratioP2;P2;SDS_P1;SDS_P2;PMS_P1;PMS_P2;Temp;Humidity;BMP_temperature;BMP_pressure;BME280_temperature;BME280_humidity;BME280_pressure;Samples;Min_cycle;Max_cycle;Signal;HPM_P1;HPM_P2
2022/06/05 00:01:37;;;;;;;15.77;12.35;;;13.30;99.90;;;;;;4976411;28;92627;-72
2022/06/05 00:04:12;;;;;;;18.03;13.57;;;13.30;99.90;;;;;;4975699;28;95904;-72
2022/06/05 00:06:45;;;;;;;18.77;12.77;;;13.20;99.90;;;;;;4977076;28;93015;-72
2022/06/05 00:09:33;;;;;;;19.07;12.90;;;13.20;99.90;;;;;;4977384;28;92430;-72
2022/06/05 00:12:08;;;;;;;16.85;13.18;;;13.10;99.90;;;;;;4976389;28;91825;-72
2022/06/05 00:14:39;;;;;;;18.15;13.68;;;13.10;99.90;;;;;;4977082;28;93163;-72
2022/06/05 00:17:16;;;;;;;18.35;13.10;;;13.10;99.90;;;;;;4959346;28;93992;-72
2022/06/05 00:19:48;;;;;;;25.75;14.85;;;13.20;99.90;;;;;;4975901;28;94899;-72
2022/06/05 00:22:15;;;;;;;21.13;13.43;;;13.10;99.90;;;;;;4975565;28;93879;-72
2022/06/05 00:24:42;;;;;;;18.90;12.70;;;13.10;99.90;;;;;;4991954;28;96011;-72
2022/06/05 00:27:29;;;;;;;15.45;13.60;;;13.10;99.90;;;;;;4976858;28;93257;-72
2022/06/05 00:30:23;;;;;;;17.85;12.13;;;13.20;99.90;;;;;;4992337;28;92524;-72
2022/06/05 00:33:08;;;;;;;22.50;12.90;;;13.10;99.90;;;;;;4967738;28;92561;-72
2022/06/05 00:35:53;;;;;;;20.52;13.63;;;13.10;99.90;;;;;;4976830;28;93160;-72
2022/06/05 00:38:40;;;;;;;17.48;12.90;;;13.00;99.90;;;;;;4977291;28;93185;-72
2022/06/05 00:41:47;;;;;;;18.77;13.13;;;12.90;99.90;;;;;;4976999;28;92452;-72
2022/06/05 00:44:20;;;;;;;20.65;11.90;;;13.00;99.90;;;;;;4974956;28;92598;-72
2022/06/05 00:46:50;;;;;;;21.48;13.55;;;12.90;99.90;;;;;;4990337;28;98135;-72
2022/06/05 00:49:19;;;;;;;23.27;12.90;;;12.90;99.90;;;;;;4991873;28;95134;-72
2022/06/05 00:51:46;;;;;;;16.90;13.25;;;12.90;99.90;;;;;;4991457;28;92533;-72
2022/06/05 00:54:13;;;;;;;21.23;13.13;;;12.90;99.90;;;;;;4974914;28;92512;-72
2022/06/05 00:56:40;;;;;;;19.17;12.95;;;12.90;99.90;;;;;;4976363;28;93302;-72
2022/06/05 00:59:09;;;;;;;20.05;13.82;;;12.90;99.90;;;;;;4958451;28;95545;-72
2022/06/05 01:01:36;;;;;;;18.30;12.23;;;12.90;99.90;;;;;;4974927;28;92693;-72
2022/06/05 01:04:04;;;;;;;19.77;12.80;;;12.90;99.90;;;;;;4976779;28;92087;-72
2022/06/05 01:06:31;;;;;;;24.33;13.52;;;12.90;99.90;;;;;;4974856;28;96033;-72
2022/06/05 01:08:58;;;;;;;20.83;13.30;;;12.90;99.90;;;;;;4991041;28;95766;-72
2022/06/05 01:11:44;;;;;;;20.70;12.48;;;12.90;99.90;;;;;;4990014;28;94874;-72
2022/06/05 01:14:48;;;;;;;18.98;13.15;;;13.00;99.90;;;;;;4976223;28;92452;-72
2022/06/05 01:17:43;;;;;;;18.27;13.32;;;13.00;99.90;;;;;;4966355;28;93442;-72
2022/06/05 01:20:27;;;;;;;19.88;13.32;;;12.90;99.90;;;;;;4974731;28;93405;-72
2022/06/05 01:23:02;;;;;;;18.65;12.70;;;12.90;99.90;;;;;;4974820;28;93014;-72
2022/06/05 01:25:53;;;;;;;17.92;12.50;;;12.90;99.90;;;;;;4974419;28;92485;-72
2022/06/05 01:28:24;;;;;;;19.48;11.77;;;12.90;99.90;;;;;;4976020;28;93143;-72
2022/06/05 01:31:05;;;;;;;22.15;13.68;;;12.80;99.90;;;;;;4991255;28;95643;-72
2022/06/05 01:33:33;;;;;;;20.35;13.02;;;12.80;99.90;;;;;;4976169;28;92345;-72
2022/06/05 01:36:10;;;;;;;20.63;14.35;;;12.80;99.90;;;;;;4974050;28;95078;-72
2022/06/05 01:38:44;;;;;;;21.55;13.95;;;12.80;99.90;;;;;;4974404;28;95725;-72
2022/06/05 01:41:30;;;;;;;19.70;12.45;;;12.80;99.90;;;;;;4973956;28;98558;-72
2022/06/05 01:44:02;;;;;;;18.50;13.27;;;12.90;99.90;;;;;;4958171;28;92529;-72
2022/06/05 01:46:34;;;;;;;20.48;13.48;;;12.80;99.90;;;;;;4976022;28;92426;-72
2022/06/05 01:49:09;;;;;;;16.50;12.23;;;12.80;99.90;;;;;;4974098;28;93268;-72
2022/06/05 01:51:46;;;;;;;17.73;13.10;;;12.80;99.90;;;;;;4974302;28;95450;-72
2022/06/05 01:54:19;;;;;;;17.00;13.35;;;12.80;99.90;;;;;;4975798;28;92490;-72
2022/06/05 01:56:52;;;;;;;19.43;13.77;;;12.80;99.90;;;;;;4976299;28;91674;-72
2022/06/05 01:59:50;;;;;;;21.55;13.80;;;12.90;99.90;;;;;;4957874;28;95856;-72
2022/06/05 02:02:24;;;;;;;21.05;12.77;;;12.90;99.90;;;;;;4968066;28;93174;-72
2022/06/05 02:05:05;;;;;;;;;;;12.80;99.90;;;;;;4973678;28;94846;-72
2022/06/05 02:07:41;;;;;;;18.27;12.23;;;12.70;99.90;;;;;;4976120;28;92550;-72
2022/06/05 02:10:20;;;;;;;23.52;13.35;;;12.70;99.90;;;;;;4975423;28;93253;-72
2022/06/05 02:12:48;;;;;;;21.92;13.55;;;12.70;99.90;;;;;;4974058;28;95602;-72
2022/06/05 02:15:15;;;;;;;20.58;13.20;;;12.80;99.90;;;;;;4990383;28;92506;-72
2022/06/05 02:17:42;;;;;;;22.58;12.98;;;12.70;99.90;;;;;;4990695;28;92486;-72
2022/06/05 02:20:10;;;;;;;21.33;12.82;;;12.80;99.90;;;;;;4974800;28;93176;-72
2022/06/05 02:22:49;;;;;;;19.55;14.02;;;12.70;99.90;;;;;;4974976;28;108281;-72
2022/06/05 02:25:19;;;;;;;18.27;12.65;;;12.80;99.90;;;;;;4973902;28;92549;-72
2022/06/05 02:27:46;;;;;;;19.00;12.85;;;12.70;99.90;;;;;;4975576;28;92464;-72
2022/06/05 02:30:15;;;;;;;19.38;13.40;;;12.80;99.90;;;;;;4956321;28;95746;-72
2022/06/05 02:33:03;;;;;;;18.70;13.60;;;12.70;99.90;;;;;;4973522;28;98131;-72
2022/06/05 02:35:58;;;;;;;20.60;13.38;;;12.70;99.90;;;;;;4975234;28;92417;-72
2022/06/05 02:38:35;;;;;;;24.42;14.20;;;12.70;99.90;;;;;;4957402;28;92476;-72
2022/06/05 02:41:26;;;;;;;20.75;13.48;;;12.60;99.90;;;;;;4974937;28;93053;-72
2022/06/05 02:47:04;;;;;;;21.63;13.25;;;12.70;99.90;;;;;;4973697;28;92963;-72
2022/06/05 02:49:55;;;;;;;22.33;14.05;;;12.70;99.90;;;;;;4974380;28;92387;-72
2022/06/05 02:52:24;;;;;;;18.70;12.95;;;12.70;99.90;;;;;;4989769;28;93422;-72
2022/06/05 02:55:03;;;;;;;20.75;13.65;;;12.70;99.90;;;;;;4974908;28;93331;-72
2022/06/05 02:57:30;;;;;;;22.30;14.45;;;12.70;99.90;;;;;;4974035;28;94963;-72
2022/06/05 02:59:57;;;;;;;20.02;13.52;;;12.70;99.90;;;;;;4989882;28;92461;-72
2022/06/05 03:05:10;;;;;;;21.70;13.85;;;12.70;99.90;;;;;;4974517;28;93132;-72
2022/06/05 03:07:37;;;;;;;20.05;14.13;;;12.70;99.90;;;;;;4973790;28;93449;-72
2022/06/05 03:10:04;;;;;;;23.35;14.07;;;12.70;99.90;;;;;;4973506;28;92574;-72
2022/06/05 03:12:31;;;;;;;24.25;14.82;;;12.70;99.90;;;;;;4972762;28;105152;-72
2022/06/05 03:15:01;;;;;;;24.02;14.95;;;12.70;99.90;;;;;;4989838;28;95562;-72
2022/06/05 03:17:29;;;;;;;26.70;14.43;;;12.70;99.90;;;;;;4974569;28;92471;-72
2022/06/05 03:19:57;;;;;;;22.63;14.60;;;12.70;99.90;;;;;;4989713;28;92454;-72
2022/06/05 03:22:25;;;;;;;22.45;13.73;;;12.70;99.90;;;;;;4988203;28;98245;-72
2022/06/05 03:24:53;;;;;;;21.15;14.00;;;12.70;99.90;;;;;;4974188;28;95517;-72
2022/06/05 03:27:20;;;;;;;24.88;15.30;;;12.70;99.90;;;;;;4974451;28;92429;-72
2022/06/05 03:29:48;;;;;;;25.38;14.45;;;12.70;99.90;;;;;;4973476;28;92705;-72
2022/06/05 03:32:15;;;;;;;21.80;14.82;;;12.80;99.90;;;;;;4973933;28;93080;-72
2022/06/05 03:34:42;;;;;;;23.80;14.80;;;12.80;99.90;;;;;;4973106;28;95576;-72
2022/06/05 03:37:09;;;;;;;24.02;15.13;;;12.80;99.90;;;;;;4956138;28;97045;-72
2022/06/05 03:39:35;;;;;;;25.65;15.57;;;12.80;99.90;;;;;;4974944;28;91755;-72
2022/06/05 03:42:03;;;;;;;21.65;14.73;;;12.90;99.90;;;;;;4977827;28;93281;-72
2022/06/05 03:44:30;;;;;;;27.05;15.07;;;12.90;99.90;;;;;;4976174;28;93156;-72
2022/06/05 03:46:56;;;;;;;24.70;15.50;;;13.00;99.90;;;;;;4975391;28;94854;-72
2022/06/05 03:49:24;;;;;;;24.08;15.13;;;13.00;99.90;;;;;;4977615;28;92402;-72
2022/06/05 03:51:51;;;;;;;23.50;15.93;;;13.10;99.90;;;;;;4959613;28;94140;-72
2022/06/05 03:54:17;;;;;;;21.08;14.95;;;13.20;99.90;;;;;;4976136;28;93063;-72
2022/06/05 03:56:44;;;;;;;19.77;14.38;;;13.30;99.90;;;;;;4976043;28;92628;-72
2022/06/05 03:59:11;;;;;;;23.40;15.77;;;13.50;99.90;;;;;;4976280;28;92496;-72
2022/06/05 04:01:39;;;;;;;22.55;15.90;;;13.60;99.90;;;;;;4975922;28;94142;-72
2022/06/05 04:04:06;;;;;;;22.50;14.68;;;13.80;99.90;;;;;;4976163;28;95685;-72
2022/06/05 04:06:33;;;;;;;20.95;14.85;;;13.90;99.90;;;;;;4977190;28;92481;-72
2022/06/05 04:09:06;;;;;;;20.88;14.48;;;14.00;99.90;;;;;;4976230;28;92969;-72
2022/06/05 04:11:35;;;;;;;21.33;15.73;;;14.10;99.90;;;;;;4975972;28;95602;-72
2022/06/05 04:14:03;;;;;;;21.10;14.40;;;14.10;99.90;;;;;;4977056;28;95163;-72
2022/06/05 04:16:31;;;;;;;20.50;14.82;;;14.10;99.90;;;;;;4992269;28;92492;-72
2022/06/05 04:19:00;;;;;;;19.20;14.00;;;14.20;99.90;;;;;;4977105;28;92572;-72
2022/06/05 04:21:30;;;;;;;24.27;14.63;;;14.10;99.90;;;;;;4976763;28;92478;-72
2022/06/05 04:23:58;;;;;;;18.23;13.90;;;14.20;99.90;;;;;;4992534;28;93088;-72
2022/06/05 04:26:29;;;;;;;19.15;14.10;;;14.20;99.90;;;;;;4976984;28;92437;-72
2022/06/05 04:28:56;;;;;;;20.67;14.57;;;14.30;99.90;;;;;;4976407;28;91995;-72
2022/06/05 04:31:26;;;;;;;21.77;15.32;;;14.30;99.90;;;;;;4975456;28;93140;-72
2022/06/05 04:33:56;;;;;;;24.17;15.07;;;14.40;99.90;;;;;;4976834;28;92944;-72
2022/06/05 04:36:24;;;;;;;20.70;14.30;;;14.40;99.90;;;;;;4975266;28;94773;-72
2022/06/05 04:38:51;;;;;;;20.90;15.10;;;14.40;99.90;;;;;;4976343;28;101407;-72
2022/06/05 04:41:19;;;;;;;22.98;14.48;;;14.50;99.90;;;;;;4975387;28;93133;-72
2022/06/05 04:43:47;;;;;;;22.20;14.68;;;14.50;99.90;;;;;;4975521;28;93116;-72
2022/06/05 04:46:16;;;;;;;21.05;14.98;;;14.60;99.90;;;;;;4976637;28;92483;-72
2022/06/05 04:48:43;;;;;;;19.48;14.85;;;14.70;99.90;;;;;;4975524;28;92605;-72
2022/06/05 04:51:12;;;;;;;28.13;16.58;;;14.70;99.90;;;;;;4975608;28;93176;-72
2022/06/05 04:53:40;;;;;;;24.33;16.83;;;14.80;99.90;;;;;;4974933;28;95554;-72
2022/06/05 04:56:11;;;;;;;20.10;15.63;;;14.90;99.90;;;;;;4975123;28;94000;-72
2022/06/05 04:58:38;;;;;;;21.95;14.65;;;15.10;99.90;;;;;;4976417;28;92376;-72
2022/06/05 05:01:15;;;;;;;19.60;14.48;;;15.20;99.90;;;;;;4974790;28;96200;-72
2022/06/05 05:03:43;;;;;;;19.95;14.57;;;15.30;99.90;;;;;;4976230;28;95366;-72
2022/06/05 05:06:12;;;;;;;21.05;14.60;;;15.40;99.90;;;;;;4976186;28;92567;-72
2022/06/05 05:08:39;;;;;;;19.25;14.77;;;15.50;99.90;;;;;;4974968;28;92974;-72
2022/06/05 05:11:06;;;;;;;17.88;15.95;;;15.70;99.90;;;;;;4976291;28;93463;-72
2022/06/05 05:13:33;;;;;;;17.90;14.68;;;15.80;99.90;;;;;;4974553;28;92552;-72
2022/06/05 05:16:00;;;;;;;17.90;14.23;;;16.00;99.90;;;;;;4976374;28;92497;-72
2022/06/05 05:18:27;;;;;;;17.88;13.95;;;16.20;99.90;;;;;;4975048;28;92247;-72
2022/06/05 05:20:54;;;;;;;18.67;14.38;;;16.30;99.90;;;;;;4976246;28;93239;-72
2022/06/05 05:23:21;;;;;;;18.27;14.27;;;16.40;99.90;;;;;;4976173;28;92618;-72
2022/06/05 05:25:48;;;;;;;20.27;14.40;;;16.50;99.90;;;;;;4973435;28;95020;-72
2022/06/05 05:28:16;;;;;;;18.55;14.35;;;16.60;99.90;;;;;;4976046;28;92548;-72
2022/06/05 05:30:44;;;;;;;17.13;14.50;;;16.70;99.90;;;;;;4975380;28;103858;-72
2022/06/05 05:33:12;;;;;;;18.92;13.60;;;16.90;99.70;;;;;;4975839;28;93077;-72
2022/06/05 05:35:40;;;;;;;16.50;13.55;;;17.00;99.50;;;;;;4975943;28;92423;-72
2022/06/05 05:38:07;;;;;;;17.20;14.05;;;17.10;99.30;;;;;;4991142;28;92508;-72
2022/06/05 05:43:19;;;;;;;14.52;13.02;;;17.40;99.00;;;;;;4974805;28;95829;-72
2022/06/05 05:45:46;;;;;;;16.92;15.23;;;17.50;98.70;;;;;;4975759;28;92468;-72
2022/06/05 05:48:13;;;;;;;16.90;14.05;;;17.60;98.40;;;;;;4958239;28;93116;-72
2022/06/05 05:50:45;;;;;;;17.58;13.15;;;17.70;98.30;;;;;;4989321;28;95555;-72
2022/06/05 05:53:12;;;;;;;14.82;12.73;;;17.80;98.10;;;;;;4975273;28;95498;-72
2022/06/05 05:55:39;;;;;;;15.35;12.70;;;17.80;98.00;;;;;;4974492;28;92987;-72
2022/06/05 05:58:06;;;;;;;14.38;12.80;;;17.80;97.80;;;;;;4975677;28;92460;-72
2022/06/05 06:00:33;;;;;;;18.65;14.55;;;17.80;97.60;;;;;;4975311;28;93259;-72
2022/06/05 06:03:00;;;;;;;16.08;13.13;;;17.90;97.70;;;;;;4990339;28;93068;-72
2022/06/05 06:05:33;;;;;;;15.30;13.80;;;18.00;97.60;;;;;;4975498;28;92497;-72
2022/06/05 06:08:00;;;;;;;16.65;13.48;;;18.10;97.60;;;;;;4975941;28;91972;-72
2022/06/05 06:10:27;;;;;;;15.52;13.95;;;18.10;97.30;;;;;;4975437;28;93160;-72
2022/06/05 06:12:54;;;;;;;15.02;13.60;;;18.20;97.30;;;;;;4973962;28;95679;-72
2022/06/05 06:15:21;;;;;;;14.52;13.07;;;18.30;97.10;;;;;;4974517;28;94728;-72
2022/06/05 06:17:48;;;;;;;16.48;12.57;;;18.40;97.00;;;;;;4974662;28;104494;-72
2022/06/05 06:20:15;;;;;;;13.65;11.70;;;18.50;96.90;;;;;;4990426;28;93423;-73
2022/06/05 06:22:42;;;;;;;15.18;13.60;;;18.50;96.60;;;;;;4975154;28;93144;-72
2022/06/05 06:25:11;;;;;;;15.10;13.50;;;18.60;96.80;;;;;;4975478;28;92442;-72
2022/06/05 06:27:39;;;;;;;14.38;12.45;;;18.70;96.40;;;;;;4975170;28;92597;-72
2022/06/05 06:30:10;;;;;;;13.98;12.68;;;18.80;96.20;;;;;;4990172;28;93211;-72
2022/06/05 06:32:37;;;;;;;14.25;12.68;;;18.90;96.00;;;;;;4973841;28;93074;-72
2022/06/05 06:35:04;;;;;;;13.52;12.23;;;19.00;95.80;;;;;;4975301;28;92403;-72
2022/06/05 06:37:31;;;;;;;13.15;11.95;;;19.10;95.60;;;;;;4974945;28;92605;-72
2022/06/05 06:39:58;;;;;;;14.15;12.73;;;19.10;95.50;;;;;;4972386;28;98532;-72
2022/06/05 06:42:25;;;;;;;13.23;11.93;;;19.20;95.50;;;;;;4973659;28;96522;-72
2022/06/05 06:44:52;;;;;;;13.13;11.82;;;19.30;95.50;;;;;;4957417;28;92509;-72
2022/06/05 06:47:19;;;;;;;12.75;11.38;;;19.40;95.30;;;;;;4975286;28;92806;-72
2022/06/05 06:49:46;;;;;;;13.25;12.00;;;19.50;95.00;;;;;;4956850;28;101071;-72
2022/06/05 06:52:13;;;;;;;14.35;13.05;;;19.70;94.80;;;;;;4973076;28;95589;-72
2022/06/05 06:54:41;;;;;;;12.77;11.50;;;19.80;94.70;;;;;;4957391;28;92518;-72
2022/06/05 06:57:08;;;;;;;13.40;12.02;;;20.00;94.40;;;;;;4957655;28;92228;-73
2022/06/05 06:59:35;;;;;;;13.50;12.20;;;20.00;93.80;;;;;;4973401;28;93362;-72
2022/06/05 07:02:03;;;;;;;12.75;11.50;;;20.10;93.60;;;;;;4973288;28;95575;-72
2022/06/05 07:04:29;;;;;;;11.85;10.40;;;20.10;93.60;;;;;;4973783;28;95327;-72
2022/06/05 07:06:56;;;;;;;12.88;11.57;;;20.20;93.70;;;;;;4974722;28;92432;-72
2022/06/05 07:09:24;;;;;;;12.77;11.60;;;20.30;93.50;;;;;;4973501;28;93292;-72
2022/06/05 07:11:50;;;;;;;12.35;11.07;;;20.40;93.30;;;;;;4973436;28;93068;-72
2022/06/05 07:14:17;;;;;;;11.88;10.65;;;20.40;92.90;;;;;;4975678;28;92935;-72
2022/06/05 07:16:45;;;;;;;13.15;11.75;;;20.50;93.00;;;;;;4977934;28;92459;-72
2022/06/05 07:19:12;;;;;;;12.77;11.50;;;20.60;92.80;;;;;;4993272;28;95401;-72
2022/06/05 07:21:39;;;;;;;11.98;10.77;;;20.60;92.80;;;;;;4993384;28;93093;-72
2022/06/05 07:24:06;;;;;;;11.57;10.55;;;20.80;92.70;;;;;;4978210;28;92498;-72
2022/06/05 07:26:33;;;;;;;12.05;10.85;;;20.80;92.40;;;;;;4977019;28;92738;-72
2022/06/05 07:29:00;;;;;;;11.60;10.45;;;21.00;92.10;;;;;;4991463;28;96698;-72
2022/06/05 07:31:29;;;;;;;10.95;9.82;;;21.10;91.80;;;;;;4960352;28;95458;-72
2022/06/05 07:33:58;;;;;;;10.70;9.60;;;21.20;91.60;;;;;;4978222;28;92468;-72
2022/06/05 07:36:26;;;;;;;12.73;11.73;;;21.40;91.50;;;;;;4960934;28;93062;-72
2022/06/05 07:38:55;;;;;;;12.20;11.00;;;21.60;91.40;;;;;;4959994;28;94328;-72
2022/06/05 07:41:29;;;;;;;12.68;11.38;;;21.80;91.00;;;;;;4960145;28;96240;-72
2022/06/05 07:43:56;;;;;;;10.32;9.32;;;22.00;90.50;;;;;;4977658;28;92444;-72
2022/06/05 07:46:23;;;;;;;13.07;10.93;;;22.10;90.20;;;;;;4978735;28;91699;-72
2022/06/05 07:48:51;;;;;;;11.65;10.52;;;22.30;90.20;;;;;;4992831;28;92526;-72
2022/06/05 07:57:00;;;;;;;11.13;10.13;;;22.60;88.90;;;;;;4978178;28;92993;-72
2022/06/05 07:59:29;;;;;;;11.88;10.88;;;22.70;88.60;;;;;;4977483;28;93251;-73
2022/06/05 08:01:58;;;;;;;9.90;9.10;;;22.80;88.50;;;;;;4977035;28;93145;-72
2022/06/05 08:04:27;;;;;;;10.55;9.63;;;22.90;87.40;;;;;;4977958;28;92458;-72
2022/06/05 08:06:55;;;;;;;10.05;9.05;;;23.10;87.30;;;;;;4976590;28;93119;-72
2022/06/05 08:09:22;;;;;;;10.48;9.68;;;23.30;86.20;;;;;;4993034;28;96031;-73
2022/06/05 08:11:49;;;;;;;9.75;8.85;;;23.60;85.50;;;;;;4993103;28;94400;-72
2022/06/05 08:14:16;;;;;;;9.60;8.68;;;24.10;85.20;;;;;;4976773;28;93004;-72
2022/06/05 08:16:44;;;;;;;10.70;9.60;;;24.60;84.20;;;;;;4976454;28;92519;-73
2022/06/05 08:19:18;;;;;;;10.43;9.35;;;25.00;81.90;;;;;;4976253;28;95722;-72
2022/06/05 08:21:46;;;;;;;10.35;9.45;;;25.50;80.50;;;;;;4976125;28;98221;-73
2022/06/05 08:24:13;;;;;;;9.82;9.02;;;25.70;79.10;;;;;;4976517;28;92424;-73
2022/06/05 08:26:40;;;;;;;10.45;9.60;;;26.00;77.60;;;;;;4977625;28;92847;-73
2022/06/05 08:29:07;;;;;;;10.02;9.23;;;26.10;76.00;;;;;;4975872;28;93532;-73
2022/06/05 08:31:35;;;;;;;9.80;9.00;;;26.30;75.80;;;;;;4977338;28;92967;-73
2022/06/05 08:34:03;;;;;;;9.02;8.20;;;26.50;75.40;;;;;;4959737;28;93002;-72
2022/06/05 08:36:31;;;;;;;10.00;9.20;;;26.60;74.70;;;;;;4977810;28;91732;-73
2022/06/05 08:41:56;;;;;;;10.07;9.18;;;26.80;73.30;;;;;;4977426;28;92971;-73
2022/06/05 08:44:23;;;;;;;9.88;8.98;;;26.80;73.00;;;;;;4975260;28;95401;-73
2022/06/05 08:46:56;;;;;;;9.82;8.82;;;26.70;73.00;;;;;;4977187;28;92441;-73
2022/06/05 08:49:42;;;;;;;9.75;8.85;;;26.70;73.00;;;;;;4959607;28;94369;-73
2022/06/05 08:52:20;;;;;;;9.73;8.73;;;26.80;72.80;;;;;;4991555;28;95538;-73
2022/06/05 08:55:16;;;;;;;10.25;9.35;;;26.80;72.80;;;;;;4977481;28;92397;-73
2022/06/05 08:57:50;;;;;;;9.65;8.85;;;26.80;71.80;;;;;;4975960;28;92527;-73
2022/06/05 09:00:29;;;;;;;11.10;10.07;;;26.70;72.30;;;;;;4992177;28;95970;-73
2022/06/05 09:03:07;;;;;;;9.57;8.77;;;26.70;71.20;;;;;;4975012;28;95629;-73
2022/06/05 09:05:42;;;;;;;13.02;9.88;;;26.70;71.40;;;;;;4977020;28;92736;-72
2022/06/05 09:08:15;;;;;;;10.05;9.13;;;26.60;72.00;;;;;;4976901;28;92408;-73
2022/06/05 09:10:48;;;;;;;9.85;8.85;;;26.70;72.40;;;;;;4975727;28;95730;-73
2022/06/05 09:13:21;;;;;;;9.95;9.25;;;26.60;71.70;;;;;;4976605;28;95443;-73
2022/06/05 09:15:57;;;;;;;10.68;9.77;;;26.70;71.40;;;;;;4977007;28;92483;-73
2022/06/05 09:18:31;;;;;;;9.43;8.63;;;26.70;71.40;;;;;;4976650;28;92427;-73
2022/06/05 09:21:00;;;;;;;10.07;9.07;;;26.50;71.40;;;;;;4976702;28;92475;-72
2022/06/05 09:23:42;;;;;;;9.00;8.30;;;26.50;71.60;;;;;;4976311;28;93012;-73
2022/06/05 09:26:24;;;;;;;9.07;8.27;;;26.60;72.30;;;;;;4991824;28;93088;-73
2022/06/05 09:29:13;;;;;;;11.10;8.57;;;26.60;71.70;;;;;;4992236;28;91747;-73
2022/06/05 09:32:06;;;;;;;10.68;9.88;;;26.70;71.40;;;;;;4991783;28;95831;-73
2022/06/05 09:34:40;;;;;;;9.65;8.77;;;26.60;71.50;;;;;;4976647;28;93038;-73
2022/06/05 09:37:24;;;;;;;9.52;8.73;;;26.60;72.20;;;;;;4973355;28;95480;-72
2022/06/05 09:40:17;;;;;;;8.98;8.25;;;26.70;71.60;;;;;;4958814;28;92461;-73
2022/06/05 09:43:15;;;;;;;10.18;9.38;;;26.70;71.70;;;;;;4976385;28;93285;-73
2022/06/05 09:46:21;;;;;;;9.00;8.30;;;26.80;71.80;;;;;;4976414;28;92985;-73
2022/06/05 09:49:19;;;;;;;10.00;8.63;;;26.90;71.30;;;;;;4971537;28;93179;-73
2022/06/05 09:51:46;;;;;;;10.27;9.57;;;26.90;70.70;;;;;;4958519;28;92994;-72
2022/06/05 09:54:26;;;;;;;10.80;9.80;;;26.90;71.00;;;;;;4975940;28;92405;-73
2022/06/05 10:00:16;;;;;;;8.45;7.72;;;27.00;70.40;;;;;;4976296;28;92468;-73
2022/06/05 10:02:48;;;;;;;9.20;8.40;;;27.00;70.90;;;;;;4976133;28;92421;-73
2022/06/05 10:05:28;;;;;;;9.00;8.30;;;27.10;70.60;;;;;;4973626;28;95593;-73
2022/06/05 10:08:13;;;;;;;8.95;8.30;;;27.30;69.90;;;;;;4991057;28;98134;-72
2022/06/05 10:10:42;;;;;;;9.77;8.88;;;27.30;71.20;;;;;;4976063;28;92520;-73
2022/06/05 10:13:21;;;;;;;9.63;8.93;;;27.20;70.40;;;;;;4975707;28;92379;-73
2022/06/05 10:16:18;;;;;;;8.82;8.20;;;27.40;70.90;;;;;;4957913;28;96096;-73
2022/06/05 10:19:21;;;;;;;9.82;9.02;;;27.40;70.10;;;;;;4970727;28;95727;-73
2022/06/05 10:21:58;;;;;;;8.32;7.60;;;27.40;69.80;;;;;;4974935;28;92528;-72
2022/06/05 10:24:37;;;;;;;8.38;7.78;;;27.40;70.10;;;;;;4975167;28;91792;-73
2022/06/05 10:27:04;;;;;;;9.43;8.52;;;27.50;70.00;;;;;;4974453;28;93235;-73
2022/06/05 10:29:38;;;;;;;7.75;7.05;;;27.50;69.80;;;;;;4975843;28;92899;-73
2022/06/05 10:32:27;;;;;;;8.73;7.88;;;27.50;69.50;;;;;;4989675;28;94830;-73
2022/06/05 10:35:16;;;;;;;7.72;7.13;;;27.50;69.30;;;;;;4976009;28;92439;-73
2022/06/05 10:37:54;;;;;;;9.23;8.25;;;27.40;69.30;;;;;;4974599;28;93137;-73
2022/06/05 10:40:51;;;;;;;8.15;7.45;;;27.40;69.50;;;;;;4975839;28;93005;-72
2022/06/05 10:43:29;;;;;;;8.95;8.25;;;27.50;69.80;;;;;;4975775;28;92801;-72
2022/06/05 10:46:17;;;;;;;8.20;7.43;;;27.70;69.50;;;;;;4974320;28;92506;-73
2022/06/05 10:48:57;;;;;;;9.48;8.75;;;27.70;69.00;;;;;;4974791;28;93185;-73
2022/06/05 10:51:24;;;;;;;8.13;7.43;;;27.90;68.50;;;;;;4979207;28;92944;-73
2022/06/05 10:53:57;;;;;;;8.77;8.18;;;28.00;68.40;;;;;;4977849;28;92550;-73
2022/06/05 10:56:36;;;;;;;;;;;28.10;68.20;;;;;;4979640;28;92559;-73
2022/06/05 10:59:29;;;;;;;8.60;7.88;;;28.10;67.50;;;;;;4978852;28;95681;-73
2022/06/05 11:02:24;;;;;;;7.55;6.95;;;28.20;67.70;;;;;;4978696;28;95409;-72
2022/06/05 11:04:51;;;;;;;6.97;6.38;;;28.20;67.70;;;;;;4950884;28;92563;-73
2022/06/05 11:08:12;;;;;;;7.90;6.88;;;28.30;67.70;;;;;;4978875;28;92430;-73
2022/06/05 11:14:16;;;;;;;9.77;7.82;;;28.30;66.90;;;;;;4977372;28;95619;-73
2022/06/05 11:17:22;;;;;;;9.18;8.07;;;28.50;66.70;;;;;;4979162;28;92908;-73
2022/06/05 11:20:03;;;;;;;7.38;6.88;;;28.50;65.60;;;;;;4994050;28;91902;-73
2022/06/05 11:22:32;;;;;;;7.07;6.40;;;28.60;65.20;;;;;;4977097;28;93242;-73
2022/06/05 11:25:36;;;;;;;7.85;7.25;;;28.80;65.50;;;;;;4993406;28;95534;-73
2022/06/05 11:28:38;;;;;;;7.10;6.45;;;28.90;64.70;;;;;;4916714;28;95057;-73
2022/06/05 11:31:06;;;;;;;8.80;8.18;;;29.00;64.70;;;;;;4978767;28;92560;-72
2022/06/05 11:33:41;;;;;;;6.82;6.32;;;28.90;64.70;;;;;;4960689;28;95838;-73
2022/06/05 11:36:26;;;;;;;7.28;6.60;;;29.10;64.60;;;;;;4977365;28;92934;-73
2022/06/05 11:39:04;;;;;;;7.97;7.38;;;29.20;64.40;;;;;;4978618;28;92542;-73
2022/06/05 11:41:43;;;;;;;7.45;6.68;;;29.20;64.20;;;;;;4967670;28;92471;-73
2022/06/05 11:44:32;;;;;;;7.30;6.72;;;29.20;64.00;;;;;;4976542;28;93313;-73
2022/06/05 11:47:03;;;;;;;8.27;7.57;;;29.20;64.10;;;;;;4978551;28;96679;-73
2022/06/05 11:49:51;;;;;;;7.95;7.22;;;29.20;63.40;;;;;;4976898;28;92526;-73
2022/06/05 11:52:41;;;;;;;8.82;8.13;;;29.20;62.60;;;;;;4977750;28;92917;-73
2022/06/05 11:55:11;;;;;;;7.45;6.85;;;29.20;62.10;;;;;;4976842;28;96495;-73
2022/06/05 11:57:49;;;;;;;7.53;6.88;;;29.10;62.30;;;;;;4976351;28;95463;-73
2022/06/05 12:00:29;;;;;;;9.20;6.78;;;29.20;62.50;;;;;;4959883;28;92477;-73
2022/06/05 12:02:58;;;;;;;7.00;6.40;;;29.20;62.40;;;;;;4977122;28;92531;-73
2022/06/05 12:05:36;;;;;;;7.50;7.00;;;29.20;62.90;;;;;;4977609;28;93436;-73
2022/06/05 12:08:20;;;;;;;7.60;6.85;;;29.30;62.60;;;;;;4976818;28;93004;-73
2022/06/05 12:10:59;;;;;;;7.47;6.82;;;29.20;62.20;;;;;;4977974;28;92913;-73
2022/06/05 12:13:35;;;;;;;7.40;6.70;;;29.00;62.50;;;;;;4978072;28;91693;-72
2022/06/05 12:16:10;;;;;;;8.00;7.50;;;29.00;62.40;;;;;;4977999;28;93336;-72
2022/06/05 12:18:54;;;;;;;7.50;6.90;;;28.90;62.40;;;;;;4959353;28;95649;-73
2022/06/05 12:21:34;;;;;;;7.63;7.03;;;28.80;62.20;;;;;;4976694;28;94836;-72
2022/06/05 12:24:14;;;;;;;7.45;6.93;;;28.70;62.90;;;;;;4977790;28;92368;-73
2022/06/05 12:26:57;;;;;;;8.07;7.28;;;28.60;62.80;;;;;;4977295;28;93243;-73
2022/06/05 12:29:33;;;;;;;7.55;6.85;;;28.50;62.90;;;;;;4975970;28;93000;-73
2022/06/05 12:32:06;;;;;;;7.40;6.65;;;28.50;63.60;;;;;;4959576;28;92508;-73
2022/06/05 12:34:56;;;;;;;7.60;6.90;;;28.40;63.50;;;;;;4977541;28;92352;-73
2022/06/05 12:37:47;;;;;;;8.40;7.72;;;28.30;64.10;;;;;;4992555;28;95739;-72
2022/06/05 12:40:23;;;;;;;8.23;7.55;;;28.20;64.80;;;;;;4960051;28;95507;-73
2022/06/05 12:43:15;;;;;;;8.32;7.72;;;28.10;64.40;;;;;;4977579;28;92449;-73
2022/06/05 12:45:46;;;;;;;8.13;7.53;;;28.10;64.20;;;;;;4992124;28;92684;-73
2022/06/05 12:48:21;;;;;;;7.82;7.32;;;28.10;64.80;;;;;;4975845;28;95581;-73
2022/06/05 12:51:04;;;;;;;7.57;6.22;;;28.20;64.20;;;;;;4975547;28;97076;-73
2022/06/05 12:54:01;;;;;;;7.72;7.20;;;28.20;63.50;;;;;;4976925;28;92413;-73
2022/06/05 12:56:41;;;;;;;7.70;7.18;;;28.10;63.80;;;;;;4975733;28;92574;-72
2022/06/05 12:59:14;;;;;;;6.70;5.97;;;28.10;64.20;;;;;;4976982;28;93177;-73
2022/06/05 13:01:48;;;;;;;7.05;6.45;;;28.10;64.10;;;;;;4976940;28;93058;-73
2022/06/05 13:04:42;;;;;;;6.60;5.97;;;28.00;64.30;;;;;;4977275;28;93006;-73
2022/06/05 13:07:27;;;;;;;7.43;6.93;;;28.10;64.70;;;;;;4975941;28;91742;-73
2022/06/05 13:09:59;;;;;;;7.88;7.30;;;28.20;64.20;;;;;;4977111;28;93423;-73
2022/06/05 13:13:19;;;;;;;6.28;5.65;;;28.20;63.80;;;;;;4975758;28;93154;-73
2022/06/05 13:15:55;;;;;;;7.22;6.72;;;28.30;64.00;;;;;;4914978;28;94965;-73
2022/06/05 13:19:08;;;;;;;7.22;6.82;;;28.30;64.30;;;;;;4916125;28;92539;-73
2022/06/05 13:21:46;;;;;;;6.78;6.30;;;28.50;63.80;;;;;;4943051;28;95878;-73
2022/06/05 13:24:13;;;;;;;8.18;7.38;;;28.60;63.00;;;;;;4991561;28;95276;-73
2022/06/05 13:26:51;;;;;;;7.63;7.03;;;28.60;63.20;;;;;;4976674;28;92472;-73
2022/06/05 13:29:28;;;;;;;6.50;6.10;;;28.70;62.70;;;;;;4975465;28;92559;-72
2022/06/05 13:32:22;;;;;;;7.68;6.97;;;28.70;62.60;;;;;;4991640;28;96338;-73
2022/06/05 13:35:05;;;;;;;6.72;6.13;;;28.60;62.40;;;;;;4965493;28;95990;-73
2022/06/05 13:37:40;;;;;;;6.50;6.00;;;28.50;63.10;;;;;;4975244;28;92535;-73